Time;durP1;ratioP1;P1;durP2;ratioP2;P2;SDS_P1;SDS_P2;PMS_P1;PMS_P2;Temp;Humidity;BMP_temperature;BMP_pressure;BME280_temperature;BME280_humidity;BME280_pressure;Samples;Min_cycle;Max_cycle;Signal;HPM_P1;HPM_P2
2022/08/26 00:00:11;;;;;;;24.60;11.52;;;;;;;19.50;95.68;101481.69;5093303;28;20024;-79
2022/08/26 00:02:37;;;;;;;27.48;11.52;;;;;;;19.39;95.63;101463.50;5091617;28;20020;-79
2022/08/26 00:05:02;;;;;;;24.30;10.35;;;;;;;19.36;96.17;101469.84;5093680;28;20475;-80
2022/08/26 00:07:28;;;;;;;21.83;9.45;;;;;;;19.36;95.59;101466.38;5093094;28;20028;-80
2022/08/26 00:09:53;;;;;;;18.42;9.38;;;;;;;19.33;95.87;101477.16;5093158;28;20156;-79
2022/08/26 00:12:19;;;;;;;21.05;8.80;;;;;;;19.35;96.28;101483.06;5092948;28;20521;-79
2022/08/26 00:14:44;;;;;;;17.20;8.73;;;;;;;19.33;96.04;101485.81;5092977;28;20031;-80
2022/08/26 00:17:10;;;;;;;19.63;9.00;;;;;;;19.31;96.04;101490.38;5091363;28;20505;-80
2022/08/26 00:19:36;;;;;;;15.35;8.32;;;;;;;19.13;96.10;101461.44;5092888;28;20028;-80
2022/08/26 00:22:01;;;;;;;18.92;8.77;;;;;;;19.25;96.39;101490.09;5093048;28;20039;-80
2022/08/26 00:24:26;;;;;;;20.75;8.80;;;;;;;19.20;96.55;101488.72;5093000;28;20028;-80
2022/08/26 00:26:52;;;;;;;17.58;8.13;;;;;;;19.18;96.61;101495.06;5091495;28;20078;-79
2022/08/26 00:29:18;;;;;;;17.98;9.18;;;;;;;19.13;96.87;101486.78;5092750;28;20020;-80
2022/08/26 00:31:44;;;;;;;18.25;8.90;;;;;;;19.11;97.26;101494.78;5092570;28;20445;-80
2022/08/26 00:34:09;;;;;;;16.38;8.65;;;;;;;19.04;96.86;101483.19;5092524;28;20024;-80
2022/08/26 00:36:35;;;;;;;14.00;8.45;;;;;;;19.08;97.09;101491.63;5092887;28;20459;-79
2022/08/26 00:39:01;;;;;;;21.70;9.32;;;;;;;19.02;97.58;101486.91;5092789;28;20052;-79
2022/08/26 00:41:26;;;;;;;16.20;8.73;;;;;;;19.00;97.29;101492.28;5092849;28;20024;-80
2022/08/26 00:43:52;;;;;;;17.92;8.93;;;;;;;18.94;97.91;101484.97;5092665;28;20074;-80
2022/08/26 00:46:27;;;;;;;18.98;9.18;;;;;;;18.94;98.26;101491.97;5092831;28;20368;-80
2022/08/26 00:49:09;;;;;;;17.80;8.73;;;;;;;18.83;98.29;101462.34;5092667;28;20425;-80
2022/08/26 00:51:41;;;;;;;20.00;8.20;;;;;;;18.77;98.04;101459.44;5092837;28;20056;-80
2022/08/26 00:54:09;;;;;;;19.50;8.63;;;;;;;18.94;97.79;101495.41;5091456;28;20487;-79
2022/08/26 00:56:49;;;;;;;20.33;9.25;;;;;;;18.84;97.96;101484.09;5092779;28;20028;-79
2022/08/26 00:59:16;;;;;;;18.88;8.23;;;;;;;18.85;98.31;101493.59;5092312;28;20032;-79
2022/08/26 01:01:42;;;;;;;16.33;7.85;;;;;;;18.94;98.08;101508.50;5092507;28;20024;-79
2022/08/26 01:04:10;;;;;;;18.25;7.75;;;;;;;18.97;98.20;101510.03;5092572;28;20016;-79
2022/08/26 01:06:35;;;;;;;16.08;7.88;;;;;;;18.94;97.81;101489.38;5092648;28;20471;-80
2022/08/26 01:09:01;;;;;;;17.42;7.65;;;;;;;19.01;97.83;101486.06;5092576;28;20032;-79
2022/08/26 01:11:26;;;;;;;17.75;7.47;;;;;;;19.01;97.70;101491.31;5092478;28;20021;-80
2022/08/26 01:13:55;;;;;;;16.85;7.53;;;;;;;19.03;97.85;101494.63;5092185;28;20026;-79
2022/08/26 01:16:21;;;;;;;19.65;7.60;;;;;;;18.90;98.02;101473.13;5092446;28;20051;-80
2022/08/26 01:18:47;;;;;;;21.15;8.20;;;;;;;19.05;97.46;101492.69;5092432;28;20028;-80
2022/08/26 01:21:27;;;;;;;20.42;7.07;;;;;;;19.07;97.46;101503.03;5092520;28;20016;-80
2022/08/26 01:23:54;;;;;;;16.48;6.80;;;;;;;19.05;97.75;101494.47;5091067;28;20427;-80
2022/08/26 01:26:28;;;;;;;16.55;7.63;;;;;;;19.10;97.35;101493.13;5090587;28;20071;-80
2022/08/26 01:28:56;;;;;;;19.48;7.60;;;;;;;19.12;97.18;101499.03;5092280;28;20085;-78
2022/08/26 01:31:26;;;;;;;13.52;6.70;;;;;;;19.15;97.50;101493.53;5092128;28;20079;-79
2022/08/26 01:34:02;;;;;;;17.67;7.57;;;;;;;19.16;96.87;101483.88;5092180;28;20041;-79
2022/08/26 01:36:29;;;;;;;16.73;7.18;;;;;;;19.15;96.78;101480.44;5092349;28;20028;-76
2022/08/26 01:38:54;;;;;;;20.08;7.55;;;;;;;18.97;96.59;101452.44;5092276;28;20070;-71
2022/08/26 01:41:20;;;;;;;17.05;7.25;;;;;;;19.22;96.60;101490.38;5091849;28;20036;-77
2022/08/26 01:43:52;;;;;;;16.42;7.50;;;;;;;19.19;96.47;101484.44;5093183;28;20028;-78
2022/08/26 01:46:18;;;;;;;;;;;;;;;19.26;95.16;101492.56;5096285;28;20024;-78
2022/08/26 01:48:45;;;;;;;16.67;7.55;;;;;;;19.21;96.72;101484.31;5095687;28;19912;-78
2022/08/26 01:51:12;;;;;;;14.95;7.07;;;;;;;19.26;96.22;101494.38;5095629;28;20024;-77
2022/08/26 01:53:39;;;;;;;17.13;7.45;;;;;;;19.16;96.18;101486.50;5095630;28;20069;-76
2022/08/26 01:56:06;;;;;;;23.67;8.50;;;;;;;19.16;96.37;101484.72;5095457;28;20035;-75
2022/08/26 01:58:41;;;;;;;15.30;7.25;;;;;;;19.25;96.09;101495.31;5095788;28;20140;-77
2022/08/26 02:01:06;;;;;;;13.98;6.75;;;;;;;19.24;95.95;101498.91;5095579;28;20031;-72
2022/08/26 02:03:33;;;;;;;16.92;7.85;;;;;;;19.23;96.20;101495.47;5095368;28;20020;-80
2022/08/26 02:06:03;;;;;;;14.32;7.10;;;;;;;19.22;96.35;101493.00;5095381;28;20379;-78
2022/08/26 02:08:44;;;;;;;13.77;6.32;;;;;;;19.20;95.91;101488.72;5095275;28;20016;-77
2022/08/26 02:11:10;;;;;;;;;;;;;;;19.24;95.17;101485.81;5095813;28;20353;-77
2022/08/26 02:13:58;;;;;;;16.30;7.20;;;;;;;19.19;95.89;101484.44;5095376;28;19920;-76
2022/08/26 02:16:28;;;;;;;17.48;6.75;;;;;;;19.17;96.50;101483.78;5094644;28;20040;-76
2022/08/26 02:18:54;;;;;;;17.63;7.50;;;;;;;19.18;96.08;101489.84;5095133;28;20027;-79
2022/08/26 02:21:23;;;;;;;17.63;7.32;;;;;;;19.10;96.18;101480.03;5094884;28;20352;-78
2022/08/26 02:23:48;;;;;;;16.27;7.45;;;;;;;19.07;95.91;101485.50;5095195;28;20026;-78
2022/08/26 02:26:20;;;;;;;19.45;7.28;;;;;;;19.15;96.41;101501.38;5095084;28;20107;-80
2022/08/26 02:28:51;;;;;;;17.98;6.47;;;;;;;19.07;95.89;101493.38;5093520;28;20070;-79
2022/08/26 02:31:16;;;;;;;;;;;;;;;19.17;94.72;101506.47;5095165;28;20121;-79
2022/08/26 02:33:42;;;;;;;13.48;6.32;;;;;;;19.10;95.89;101508.84;5094880;28;19955;-80
2022/08/26 02:36:07;;;;;;;13.45;6.43;;;;;;;19.08;96.28;101516.00;5094637;28;20024;-76
2022/08/26 02:38:34;;;;;;;12.75;6.55;;;;;;;19.03;96.56;101520.78;5094775;28;20099;-77
2022/08/26 02:40:59;;;;;;;13.85;6.30;;;;;;;18.95;96.85;101507.53;5094891;28;20024;-74
2022/08/26 02:43:24;;;;;;;17.83;6.68;;;;;;;19.01;96.92;101522.72;5094792;28;20379;-73
2022/08/26 02:45:50;;;;;;;17.92;6.40;;;;;;;18.99;96.63;101524.66;5094749;28;20024;-78
2022/08/26 02:48:17;;;;;;;22.75;6.05;;;;;;;18.99;97.10;101519.41;5094707;28;20024;-77
2022/08/26 02:50:43;;;;;;;14.98;5.05;;;;;;;18.96;96.88;101521.47;5094184;28;20059;-79
2022/08/26 02:53:09;;;;;;;14.88;5.88;;;;;;;18.92;97.12;101518.28;5094456;28;20085;-73
2022/08/26 02:55:35;;;;;;;11.73;5.60;;;;;;;18.85;97.13;101504.06;5094599;28;20054;-76
2022/08/26 02:58:01;;;;;;;15.15;5.45;;;;;;;18.79;97.13;101496.78;5094550;28;20028;-80
2022/08/26 03:00:27;;;;;;;13.40;5.18;;;;;;;18.82;97.49;101513.03;5094414;28;20022;-74
2022/08/26 03:02:53;;;;;;;12.30;5.18;;;;;;;18.76;97.54;101510.94;5094407;28;20027;-75
2022/08/26 03:05:20;;;;;;;16.75;5.53;;;;;;;18.68;97.69;101499.47;5093905;28;20031;-74
2022/08/26 03:07:45;;;;;;;11.73;5.05;;;;;;;18.69;97.91;101512.44;5094445;28;20020;-79
2022/08/26 03:10:12;;;;;;;12.85;4.47;;;;;;;18.69;98.10;101522.09;5094308;28;20472;-72
2022/08/26 03:12:37;;;;;;;12.55;4.43;;;;;;;18.53;98.51;101501.59;5094471;28;20028;-74
2022/08/26 03:15:05;;;;;;;14.93;5.10;;;;;;;18.54;98.29;101506.69;5094113;28;20028;-73
2022/08/26 03:17:30;;;;;;;14.20;4.40;;;;;;;18.64;98.51;101519.81;5093841;28;20494;-72
2022/08/26 03:19:55;;;;;;;15.57;5.20;;;;;;;18.50;98.67;101496.66;5093866;28;20028;-77
2022/08/26 03:22:21;;;;;;;11.73;4.78;;;;;;;18.68;98.52;101509.94;5093834;28;20028;-74
2022/08/26 03:24:46;;;;;;;14.93;4.60;;;;;;;18.70;98.51;101513.28;5094047;28;20031;-76
2022/08/26 03:27:12;;;;;;;11.90;4.43;;;;;;;18.69;98.27;101507.22;5093801;28;20169;-75
2022/08/26 03:32:21;;;;;;;13.77;5.07;;;;;;;18.77;97.51;101517.81;5093769;28;20035;-75
2022/08/26 03:34:46;;;;;;;13.65;4.70;;;;;;;18.81;97.02;101519.22;5093677;28;20387;-75
2022/08/26 03:37:12;;;;;;;13.15;4.88;;;;;;;18.76;96.99;101503.09;5093506;28;20025;-79
2022/08/26 03:39:37;;;;;;;17.27;5.13;;;;;;;18.83;96.94;101517.31;5093907;28;20031;-80
2022/08/26 03:42:03;;;;;;;14.35;4.95;;;;;;;18.85;97.06;101525.00;5093768;28;20112;-78
2022/08/26 03:44:29;;;;;;;16.02;4.45;;;;;;;18.86;96.78;101519.63;5093606;28;20035;-78
2022/08/26 03:46:54;;;;;;;10.85;4.22;;;;;;;18.89;96.77;101518.56;5093612;28;20016;-76
2022/08/26 03:49:19;;;;;;;16.02;4.38;;;;;;;18.89;96.24;101521.19;5093479;28;20028;-78
2022/08/26 03:51:46;;;;;;;9.40;3.50;;;;;;;18.87;96.76;101521.28;5093198;28;20058;-80
2022/08/26 03:54:11;;;;;;;13.15;3.90;;;;;;;18.83;96.30;101514.69;5093240;28;20016;-80
2022/08/26 03:56:37;;;;;;;8.43;3.78;;;;;;;18.83;96.22;101512.06;5093341;28;20040;-74
2022/08/26 03:59:03;;;;;;;12.90;4.22;;;;;;;18.70;96.45;101497.56;5093371;28;20020;-80
2022/08/26 04:01:29;;;;;;;12.60;4.20;;;;;;;18.83;96.63;101524.31;5093044;28;20479;-77
2022/08/26 04:03:58;;;;;;;12.15;3.83;;;;;;;18.84;96.60;101521.56;5093231;28;20050;-78
2022/08/26 04:06:36;;;;;;;11.35;3.65;;;;;;;18.84;96.35;101516.34;5092443;28;20055;-79
2022/08/26 04:09:09;;;;;;;12.20;3.67;;;;;;;18.89;95.80;101519.41;5093182;28;20031;-80
2022/08/26 04:11:34;;;;;;;11.18;3.70;;;;;;;18.76;95.97;101497.03;5093218;28;20107;-79
2022/08/26 04:14:05;;;;;;;12.18;3.65;;;;;;;18.90;96.12;101522.84;5091849;28;20174;-80
2022/08/26 04:16:31;;;;;;;9.50;3.25;;;;;;;18.91;95.77;101519.25;5092983;28;20031;-80
2022/08/26 04:18:57;;;;;;;13.18;3.70;;;;;;;18.92;95.42;101523.53;5093025;28;20028;-77
2022/08/26 04:21:23;;;;;;;10.32;3.55;;;;;;;18.94;95.46;101526.00;5092786;28;20383;-79
2022/08/26 04:23:49;;;;;;;11.77;3.75;;;;;;;18.94;95.21;101511.13;5093080;28;20085;-78
2022/08/26 04:26:17;;;;;;;12.90;4.10;;;;;;;18.92;95.00;101513.06;5093472;28;20214;-77
2022/08/26 04:28:43;;;;;;;14.15;3.40;;;;;;;18.89;95.22;101508.94;5092786;28;20028;-73
2022/08/26 04:31:13;;;;;;;11.07;3.67;;;;;;;18.83;95.61;101503.38;5091518;28;20109;-75
2022/08/26 04:33:39;;;;;;;14.27;3.55;;;;;;;18.92;95.10;101513.06;5092845;28;20043;-77
2022/08/26 04:36:05;;;;;;;8.48;3.47;;;;;;;18.94;94.94;101511.13;5093057;28;20103;-80
2022/08/26 04:38:31;;;;;;;11.98;3.33;;;;;;;18.96;94.72;101521.47;5092620;28;20543;-81
2022/08/26 04:40:56;;;;;;;10.90;3.67;;;;;;;18.95;94.57;101519.81;5092727;28;20106;-78
2022/08/26 04:43:29;;;;;;;9.90;3.20;;;;;;;18.94;94.41;101516.38;5092612;28;20119;-75
2022/08/26 04:45:56;;;;;;;11.85;3.25;;;;;;;18.95;94.50;101515.41;5092599;28;20051;-80
2022/08/26 04:48:21;;;;;;;16.83;4.45;;;;;;;19.01;94.05;101522.72;5092562;28;20387;-79
2022/08/26 04:50:46;;;;;;;10.88;3.42;;;;;;;19.03;94.41;101527.81;5092714;28;20032;-75
2022/08/26 04:53:12;;;;;;;10.93;3.55;;;;;;;18.95;94.20;101515.41;5092559;28;20089;-79
2022/08/26 04:55:38;;;;;;;9.43;3.40;;;;;;;19.05;93.97;101528.50;5092712;28;20043;-77
2022/08/26 04:58:04;;;;;;;12.43;4.03;;;;;;;19.18;93.57;101529.94;5092527;28;20107;-81
2022/08/26 05:00:29;;;;;;;10.40;3.70;;;;;;;19.36;93.10;101535.31;5092656;28;20031;-81
2022/08/26 05:02:54;;;;;;;9.82;3.53;;;;;;;19.47;92.31;101539.63;5092616;28;20028;-80
2022/08/26 05:05:20;;;;;;;10.77;3.88;;;;;;;19.55;91.56;101534.50;5092551;28;20491;-80
2022/08/26 05:07:45;;;;;;;8.55;3.20;;;;;;;19.57;91.35;101535.25;5092169;28;20032;-81
2022/08/26 05:10:10;;;;;;;10.23;3.90;;;;;;;19.68;91.22;101540.34;5092469;28;20069;-77
2022/08/26 05:12:36;;;;;;;8.10;3.95;;;;;;;19.67;90.18;101516.91;5092387;28;20119;-83
2022/08/26 05:15:01;;;;;;;9.43;3.35;;;;;;;19.81;89.72;101531.34;5092458;28;20055;-80
2022/08/26 05:17:26;;;;;;;8.88;3.95;;;;;;;19.92;89.84;101529.41;5092556;28;20028;-81
2022/08/26 05:19:52;;;;;;;9.38;3.03;;;;;;;19.80;89.71;101535.78;5093724;28;20040;-82
2022/08/26 05:22:17;;;;;;;10.20;3.50;;;;;;;19.86;89.57;101529.13;5094920;28;20536;-83
2022/08/26 05:24:42;;;;;;;14.27;3.80;;;;;;;19.79;89.89;101525.44;5096103;28;20532;-81
2022/08/26 05:27:08;;;;;;;13.25;3.80;;;;;;;19.85;89.47;101528.31;5096222;28;20099;-82
2022/08/26 05:29:34;;;;;;;8.02;3.30;;;;;;;19.92;89.02;101533.81;5096027;28;20142;-76
2022/08/26 05:32:00;;;;;;;11.90;4.25;;;;;;;19.85;89.18;101540.59;5095891;28;20030;-76
2022/08/26 05:34:26;;;;;;;9.77;4.13;;;;;;;19.70;89.74;101527.91;5096003;28;20379;-81
2022/08/26 05:36:52;;;;;;;21.40;4.53;;;;;;;19.91;89.52;101538.25;5096008;28;20095;-82
2022/08/26 05:39:18;;;;;;;11.23;3.80;;;;;;;19.83;89.24;101535.50;5075170;28;20056;-77
2022/08/26 05:41:43;;;;;;;8.43;3.47;;;;;;;19.83;89.28;101514.53;5076130;28;20499;-78
2022/08/26 05:44:11;;;;;;;10.18;3.50;;;;;;;19.75;89.35;101523.06;5075537;28;20036;-76
2022/08/26 05:46:39;;;;;;;14.52;4.40;;;;;;;19.72;89.42;101533.84;5075637;28;20076;-74
2022/08/26 05:49:06;;;;;;;11.70;3.85;;;;;;;19.87;89.30;101539.50;5075461;28;20017;-80
2022/08/26 05:51:32;;;;;;;15.23;3.63;;;;;;;19.85;89.54;101549.28;5072559;28;20032;-81
2022/08/26 05:53:57;;;;;;;11.48;3.35;;;;;;;19.92;89.58;101550.38;5074903;28;20021;-82
2022/08/26 05:56:26;;;;;;;11.23;3.45;;;;;;;19.87;88.72;101531.63;5075162;28;20013;-78
2022/08/26 05:58:53;;;;;;;10.35;3.28;;;;;;;19.94;88.57;101545.00;5075415;28;20029;-81
2022/08/26 06:01:21;;;;;;;12.48;3.20;;;;;;;19.89;88.41;101544.59;5075276;28;20017;-79
2022/08/26 06:03:53;;;;;;;9.15;3.22;;;;;;;20.02;88.35;101555.63;5075137;28;20036;-77
2022/08/26 06:06:23;;;;;;;13.07;3.40;;;;;;;20.03;87.85;101568.56;5075178;28;20074;-83
2022/08/26 06:08:49;;;;;;;11.18;3.00;;;;;;;19.88;87.76;101551.63;5073898;28;20037;-82
2022/08/26 06:11:17;;;;;;;9.38;2.65;;;;;;;20.12;88.11;101566.09;5074945;28;20024;-80
2022/08/26 06:13:43;;;;;;;9.02;2.60;;;;;;;20.24;86.95;101575.44;5073787;28;20024;-78
2022/08/26 06:16:14;;;;;;;11.45;2.90;;;;;;;20.12;86.90;101571.34;5075123;28;20032;-76
2022/08/26 06:18:41;;;;;;;;;;;;;;;20.26;86.67;101582.22;5075459;28;20056;-78
2022/08/26 06:21:28;;;;;;;11.90;2.72;;;;;;;20.28;86.95;101585.53;5073668;28;20381;-76
2022/08/26 06:26:45;;;;;;;7.90;2.58;;;;;;;20.44;85.33;101586.75;5075416;28;20071;-83
2022/08/26 06:29:11;;;;;;;9.73;2.80;;;;;;;20.50;84.27;101581.78;5074139;28;20025;-81
2022/08/26 06:31:36;;;;;;;8.35;2.47;;;;;;;20.72;83.78;101583.22;5094607;28;20029;-83
2022/08/26 06:34:03;;;;;;;7.70;2.47;;;;;;;20.67;83.43;101574.13;5095092;28;20028;-79
2022/08/26 06:36:30;;;;;;;8.63;2.17;;;;;;;20.77;83.32;101590.66;5094553;28;20151;-82
2022/08/26 06:39:05;;;;;;;8.95;2.95;;;;;;;20.77;83.30;101588.88;5094803;28;20395;-81
2022/08/26 06:41:32;;;;;;;10.15;2.40;;;;;;;20.77;82.92;101586.25;5094537;28;20028;-84
2022/08/26 06:43:59;;;;;;;7.90;2.45;;;;;;;20.99;82.37;101597.34;5094583;28;20099;-82
2022/08/26 06:46:25;;;;;;;8.50;2.33;;;;;;;20.90;82.05;101586.72;5094547;28;20059;-81
2022/08/26 06:48:52;;;;;;;10.00;2.67;;;;;;;20.82;82.09;101607.63;5094634;28;20020;-83
2022/08/26 06:51:21;;;;;;;7.72;2.80;;;;;;;20.69;82.33;101594.00;5094566;28;20024;-83
2022/08/26 06:53:48;;;;;;;8.85;2.90;;;;;;;20.59;82.30;101559.09;5094359;28;20028;-83
2022/08/26 06:56:16;;;;;;;11.23;2.75;;;;;;;20.91;81.65;101588.38;5094422;28;20031;-78
2022/08/26 06:58:42;;;;;;;7.00;2.50;;;;;;;20.90;80.95;101576.22;5094447;28;20024;-83
2022/08/26 07:01:23;;;;;;;11.23;2.30;;;;;;;21.05;80.89;101607.28;5094606;28;20077;-83
2022/08/26 07:03:50;;;;;;;9.18;2.28;;;;;;;21.04;80.83;101619.56;5094287;28;20028;-83
2022/08/26 07:06:18;;;;;;;8.88;2.20;;;;;;;21.03;80.31;101588.19;5094352;28;20024;-81
2022/08/26 07:08:51;;;;;;;7.60;1.95;;;;;;;21.25;80.20;101610.63;5090352;28;20044;-76
2022/08/26 07:11:18;;;;;;;9.57;2.20;;;;;;;21.37;78.74;101606.84;5074411;28;20534;-79
2022/08/26 07:13:44;;;;;;;8.38;2.15;;;;;;;21.43;78.52;101600.97;5074042;28;20460;-80
2022/08/26 07:16:11;;;;;;;8.00;2.22;;;;;;;21.50;78.43;101603.84;5073839;28;20024;-77
2022/08/26 07:18:38;;;;;;;9.65;2.15;;;;;;;21.61;77.89;101606.25;5073562;28;20141;-77
2022/08/26 07:21:05;;;;;;;6.43;1.75;;;;;;;21.50;78.38;101603.84;5073504;28;20024;-82
2022/08/26 07:23:32;;;;;;;7.97;2.03;;;;;;;21.51;77.47;101605.50;5073572;28;20078;-77
2022/08/26 07:25:58;;;;;;;9.48;2.72;;;;;;;21.54;77.44;101611.28;5073091;28;20055;-76
2022/08/26 07:28:23;;;;;;;7.20;1.80;;;;;;;21.47;77.32;101604.97;5073190;28;20537;-78
2022/08/26 07:30:49;;;;;;;13.15;1.85;;;;;;;21.41;77.91;101611.63;5086301;28;20054;-75
2022/08/26 07:33:15;;;;;;;10.27;2.28;;;;;;;21.42;77.87;101621.16;5093766;28;20128;-80
2022/08/26 07:35:41;;;;;;;6.82;2.00;;;;;;;21.36;77.44;101613.06;5093888;28;20020;-80
2022/08/26 07:38:06;;;;;;;9.75;2.75;;;;;;;21.35;77.91;101599.09;5093756;28;20039;-81
2022/08/26 07:40:32;;;;;;;8.13;1.95;;;;;;;21.62;76.68;101608.72;5093164;28;20034;-84
2022/08/26 07:42:58;;;;;;;4.82;1.40;;;;;;;21.84;75.73;101618.00;5092905;28;20547;-79
2022/08/26 07:45:23;;;;;;;9.50;1.98;;;;;;;21.88;75.34;101623.75;5093536;28;20085;-83
2022/08/26 07:47:49;;;;;;;9.38;1.88;;;;;;;22.00;74.03;101625.19;5093461;28;20020;-84
2022/08/26 07:50:15;;;;;;;9.00;1.75;;;;;;;21.75;74.36;101590.78;5093512;28;20074;-80
2022/08/26 07:52:41;;;;;;;11.15;2.20;;;;;;;22.02;74.61;101624.06;5093409;28;20093;-82
2022/08/26 07:55:07;;;;;;;6.28;1.73;;;;;;;21.80;73.46;101602.66;5093196;28;20406;-81
2022/08/26 07:57:33;;;;;;;8.15;2.00;;;;;;;21.98;74.09;101642.91;5093131;28;20039;-84
2022/08/26 07:59:59;;;;;;;6.30;1.77;;;;;;;22.12;74.12;101644.22;5093065;28;20469;-80
2022/08/26 08:02:27;;;;;;;9.82;2.22;;;;;;;22.16;73.14;101629.78;5093350;28;20055;-85
2022/08/26 08:04:53;;;;;;;10.82;1.77;;;;;;;22.10;72.88;101602.28;5093368;28;20024;-86
2022/08/26 08:07:19;;;;;;;6.15;1.40;;;;;;;22.34;72.02;101627.94;5093290;28;20122;-85
2022/08/26 08:09:48;;;;;;;8.60;1.88;;;;;;;22.05;71.82;101586.94;5092915;28;20028;-85
2022/08/26 08:12:14;;;;;;;9.02;2.30;;;;;;;22.53;71.68;101634.81;5092827;28;20024;-83
2022/08/26 08:14:40;;;;;;;7.35;1.77;;;;;;;22.32;70.40;101625.47;5093151;28;20028;-79
2022/08/26 08:17:06;;;;;;;7.35;1.80;;;;;;;22.29;71.45;101644.19;5093097;28;20122;-82
2022/08/26 08:19:31;;;;;;;7.50;1.85;;;;;;;22.29;71.17;101640.72;5093011;28;20028;-85
2022/08/26 08:21:57;;;;;;;6.57;1.90;;;;;;;22.25;72.07;101629.69;5093146;28;20024;-85
2022/08/26 08:24:22;;;;;;;7.50;1.75;;;;;;;22.32;72.10;101611.50;5092949;28;20020;-83
2022/08/26 08:26:47;;;;;;;5.07;1.80;;;;;;;22.42;70.59;101624.53;5092652;28;20025;-86
2022/08/26 08:29:12;;;;;;;9.77;2.00;;;;;;;22.41;70.72;101625.50;5092863;28;20099;-78
2022/08/26 08:31:38;;;;;;;7.40;1.80;;;;;;;22.49;70.81;101636.91;5092452;28;20086;-83
2022/08/26 08:34:03;;;;;;;11.80;2.00;;;;;;;22.49;70.01;101644.00;5074855;28;20123;-82
2022/08/26 08:36:29;;;;;;;12.50;1.80;;;;;;;22.28;70.07;101613.59;5092853;28;20379;-81
2022/08/26 08:38:54;;;;;;;9.05;1.98;;;;;;;22.28;71.11;101642.53;5092903;28;20024;-80
2022/08/26 08:41:38;;;;;;;8.00;1.88;;;;;;;22.31;72.38;101657.19;5092491;28;20031;-86
2022/08/26 08:44:11;;;;;;;12.25;2.13;;;;;;;21.98;71.38;101642.91;5092815;28;20054;-86
2022/08/26 08:46:38;;;;;;;9.68;2.03;;;;;;;21.93;73.60;101646.00;5092897;28;20028;-85
2022/08/26 08:49:04;;;;;;;6.07;2.10;;;;;;;22.01;73.54;101634.72;5092721;28;20480;-78
2022/08/26 08:51:49;;;;;;;10.32;2.08;;;;;;;22.00;72.34;101623.38;5092752;28;20035;-91
2022/08/26 08:54:14;;;;;;;10.60;2.13;;;;;;;22.11;71.27;101645.19;5096981;28;20028;-80
2022/08/26 08:56:48;;;;;;;9.68;1.75;;;;;;;22.23;70.28;101652.72;5096625;28;20464;-80
2022/08/26 08:59:24;;;;;;;6.03;1.48;;;;;;;22.19;70.59;101653.97;5097147;28;20379;-82
2022/08/26 09:02:16;;;;;;;11.13;1.88;;;;;;;22.14;70.81;101652.78;5096789;28;20035;-83
2022/08/26 09:04:47;;;;;;;7.93;2.00;;;;;;;22.02;71.02;101652.16;5096582;28;20028;-81
2022/08/26 09:07:26;;;;;;;5.95;1.70;;;;;;;21.94;71.92;101644.22;5096814;28;20024;-84
2022/08/26 09:09:57;;;;;;;10.70;1.70;;;;;;;21.95;71.48;101630.06;5096479;28;20020;-79
2022/08/26 09:12:25;;;;;;;11.35;2.08;;;;;;;22.07;71.73;101651.75;5096464;28;20035;-80
2022/08/26 09:14:55;;;;;;;5.32;1.73;;;;;;;22.10;71.90;101633.84;5096491;28;20032;-88
2022/08/26 09:17:56;;;;;;;12.05;1.88;;;;;;;22.24;71.44;101656.16;5094915;28;20522;-81
2022/08/26 09:20:22;;;;;;;;;;;;;;;;;;5077307;28;20028;-82
2022/08/26 09:22:47;;;;;;;6.88;1.95;;;;;;;22.35;70.99;101647.19;5076342;28;19913;-83
2022/08/26 09:25:14;;;;;;;8.82;1.85;;;;;;;22.39;69.45;101664.31;5057621;28;20036;-88
2022/08/26 09:27:42;;;;;;;11.77;2.10;;;;;;;22.28;70.47;101663.59;5075392;28;20476;-87
2022/08/26 09:30:14;;;;;;;7.30;2.08;;;;;;;22.26;71.08;101659.47;5075773;28;20052;-84
2022/08/26 09:32:41;;;;;;;8.63;1.98;;;;;;;22.25;70.71;101660.44;5074722;28;20107;-85
2022/08/26 09:35:23;;;;;;;6.93;1.73;;;;;;;22.26;70.99;101662.09;5075798;28;20024;-87
2022/08/26 09:37:48;;;;;;;8.07;1.92;;;;;;;22.01;70.68;101640.78;5057707;28;20027;-87
2022/08/26 09:40:21;;;;;;;9.35;2.13;;;;;;;22.04;70.42;101663.38;5057699;28;20025;-87
2022/08/26 09:42:46;;;;;;;12.80;2.53;;;;;;;21.92;71.92;101649.59;5075429;28;20028;-85
2022/08/26 09:45:12;;;;;;;7.68;1.65;;;;;;;22.07;71.11;101668.34;5057002;28;20021;-83
2022/08/26 09:47:57;;;;;;;8.82;2.17;;;;;;;22.10;71.05;101672.47;5080103;23;20056;-87
2022/08/26 09:50:27;;;;;;;11.75;2.13;;;;;;;22.01;70.85;101675.00;5075376;28;20034;-85
2022/08/26 09:53:27;;;;;;;10.10;1.77;;;;;;;21.17;70.54;101543.06;5075005;28;20053;-85
2022/08/26 09:56:31;;;;;;;8.73;2.05;;;;;;;22.03;71.74;101670.44;4974340;28;20042;-85
2022/08/26 09:58:58;;;;;;;9.05;2.08;;;;;;;22.14;70.27;101671.22;4935900;29;20036;-85
2022/08/26 10:01:33;;;;;;;9.13;1.98;;;;;;;22.00;70.66;101635.69;4919675;29;20032;-81
2022/08/26 10:04:08;;;;;;;11.50;1.95;;;;;;;22.19;70.46;101669.75;4935113;29;20039;-81
2022/08/26 10:06:39;;;;;;;7.18;1.80;;;;;;;22.17;69.79;101673.53;4935550;29;20200;-79
2022/08/26 10:09:06;;;;;;;9.82;1.58;;;;;;;22.05;69.58;101678.16;4935550;29;20563;-80
2022/08/26 10:11:44;;;;;;;7.53;1.63;;;;;;;22.09;70.66;101670.81;4935536;29;20373;-78
2022/08/26 10:14:17;;;;;;;9.30;1.55;;;;;;;22.06;69.64;101671.94;4935364;29;20039;-77
2022/08/26 10:16:49;;;;;;;8.45;1.88;;;;;;;21.95;70.18;101672.16;4919922;29;20047;-77
2022/08/26 10:19:20;;;;;;;7.97;1.80;;;;;;;21.92;70.82;101681.16;4935393;29;20036;-80
2022/08/26 10:21:55;;;;;;;10.00;1.63;;;;;;;22.05;70.50;101680.81;4935607;29;20028;-82
2022/08/26 10:24:31;;;;;;;8.18;1.70;;;;;;;21.82;70.37;101640.94;4935424;29;20031;-84
2022/08/26 10:27:35;;;;;;;6.72;1.80;;;;;;;22.10;70.27;101683.00;4935843;29;20047;-84
2022/08/26 10:30:07;;;;;;;9.27;1.70;;;;;;;22.05;70.30;101650.06;4952624;29;20027;-80
2022/08/26 10:32:40;;;;;;;6.85;1.30;;;;;;;22.17;69.16;101653.31;4980957;28;20040;-80
2022/08/26 10:35:10;;;;;;;8.20;1.50;;;;;;;22.17;68.85;101649.84;5074323;28;20143;-83
2022/08/26 10:37:40;;;;;;;9.48;1.60;;;;;;;22.09;68.99;101678.72;5074598;28;20040;-83
2022/08/26 10:40:13;;;;;;;9.60;1.85;;;;;;;21.92;68.91;101654.84;5074240;28;20037;-88
2022/08/26 10:42:50;;;;;;;8.75;1.45;;;;;;;21.87;69.51;101661.56;5074343;28;20375;-80
2022/08/26 10:45:27;;;;;;;10.63;1.60;;;;;;;21.77;70.28;101640.59;5074328;28;20387;-83
2022/08/26 10:47:58;;;;;;;9.90;1.95;;;;;;;21.86;69.70;101679.13;5074204;28;20033;-80
2022/08/26 10:50:32;;;;;;;8.07;1.40;;;;;;;21.68;70.15;101658.09;5074339;28;20040;-82
2022/08/26 10:53:06;;;;;;;5.88;1.40;;;;;;;21.86;70.33;101676.50;5074206;28;20033;-78
2022/08/26 10:55:44;;;;;;;8.05;1.73;;;;;;;21.98;69.53;101671.84;5074131;28;20111;-84
2022/08/26 10:58:33;;;;;;;9.00;1.80;;;;;;;22.14;69.61;101673.84;5073959;28;20483;-88
2022/08/26 11:04:21;;;;;;;7.60;1.88;;;;;;;22.57;67.16;101663.31;5074177;28;20450;-88
2022/08/26 11:06:46;;;;;;;10.45;2.03;;;;;;;22.58;66.96;101667.59;5073935;28;20082;-85
2022/08/26 11:09:41;;;;;;;8.90;1.77;;;;;;;22.69;66.92;101674.41;5074055;28;20472;-87
2022/08/26 11:12:07;;;;;;;7.50;1.55;;;;;;;22.27;66.19;101651.41;5055851;28;20028;-84
2022/08/26 11:14:33;;;;;;;7.70;1.35;;;;;;;22.46;67.52;101684.63;5073669;28;20051;-88
2022/08/26 11:16:58;;;;;;;8.27;1.35;;;;;;;22.41;67.09;101684.22;5055715;28;20024;-78
2022/08/26 11:19:54;;;;;;;9.88;1.75;;;;;;;22.50;67.90;101675.41;5074673;28;20055;-82
2022/08/26 11:22:32;;;;;;;9.90;1.85;;;;;;;22.52;68.01;101678.75;5074775;28;20637;-87
2022/08/26 11:24:57;;;;;;;7.82;1.58;;;;;;;22.54;67.77;101675.97;5075107;28;20074;-85
2022/08/26 11:27:26;;;;;;;7.55;1.70;;;;;;;22.47;67.52;101680.19;5073367;28;20029;-86
2022/08/26 11:30:01;;;;;;;6.93;1.60;;;;;;;22.47;67.56;101670.47;5073338;28;20033;-72
2022/08/26 11:32:32;;;;;;;6.90;1.60;;;;;;;22.37;68.48;101669.75;5073306;28;20040;-81
2022/08/26 11:34:59;;;;;;;;;;;;;;;22.45;68.39;101674.25;5073808;28;20048;-82
2022/08/26 11:37:31;;;;;;;9.43;1.60;;;;;;;22.42;68.41;101672.75;5073325;28;19965;-83